createdAt,value
2023-04-09T00:01:08.814Z,11.17
2023-04-09T00:04:10.600Z,11.10
2023-04-09T00:07:12.103Z,10.95
2023-04-09T00:10:13.639Z,10.82
2023-04-09T00:13:16.967Z,10.73
2023-04-09T00:16:21.818Z,10.67
2023-04-09T00:19:23.335Z,10.59
2023-04-09T00:22:24.913Z,10.56
2023-04-09T00:25:26.479Z,10.55
2023-04-09T00:28:27.972Z,10.49
2023-04-09T00:31:29.438Z,10.27
2023-04-09T00:34:31.230Z,10.17
2023-04-09T00:37:32.705Z,10.07
2023-04-09T00:40:34.148Z,9.98
2023-04-09T00:43:35.703Z,9.83
2023-04-09T00:46:37.962Z,10.50
2023-04-09T00:49:39.563Z,10.69
2023-04-09T00:52:41.090Z,10.70
2023-04-09T00:55:42.638Z,10.65
2023-04-09T00:58:44.316Z,10.64
2023-04-09T01:01:45.956Z,10.62
2023-04-09T01:04:47.904Z,10.59
2023-04-09T01:08:15.982Z,10.59
2023-04-09T01:11:44.448Z,10.61
2023-04-09T01:14:56.970Z,10.68
2023-04-09T01:18:24.466Z,10.67
2023-04-09T01:21:31.262Z,10.62
2023-04-09T01:25:01.037Z,10.61
2023-04-09T01:28:20.883Z,10.46
2023-04-09T01:31:34.117Z,10.40
2023-04-09T01:34:36.566Z,10.35
2023-04-09T01:37:40.092Z,10.38
2023-04-09T01:40:42.905Z,10.48
2023-04-09T01:43:45.742Z,10.46
2023-04-09T01:46:48.590Z,10.41
2023-04-09T01:49:51.578Z,10.33
2023-04-09T01:52:53.465Z,10.32
2023-04-09T01:55:56.659Z,10.35
2023-04-09T01:58:58.098Z,10.32
2023-04-09T02:02:11.282Z,10.33
2023-04-09T02:05:17.961Z,10.61
2023-04-09T02:08:21.488Z,10.66
2023-04-09T02:11:23.880Z,10.43
2023-04-09T02:14:26.550Z,10.42
2023-04-09T02:17:28.116Z,10.40
2023-04-09T02:20:29.622Z,10.37
2023-04-09T02:23:33.210Z,10.33
2023-04-09T02:26:34.689Z,10.31
2023-04-09T02:29:36.191Z,10.21
2023-04-09T02:32:37.829Z,10.10
2023-04-09T02:35:39.357Z,10.08
2023-04-09T02:38:42.003Z,10.15
2023-04-09T02:41:44.013Z,10.06
2023-04-09T02:44:45.467Z,10.06
2023-04-09T02:47:48.339Z,10.12
2023-04-09T02:50:50.037Z,10.08
2023-04-09T02:53:51.541Z,9.82
2023-04-09T02:56:53.027Z,9.44
2023-04-09T02:59:54.501Z,9.52
2023-04-09T03:02:56.350Z,9.58
2023-04-09T03:05:57.925Z,9.55
2023-04-09T03:08:59.509Z,9.51
2023-04-09T03:12:01.941Z,9.55
2023-04-09T03:15:04.560Z,9.46
2023-04-09T03:18:06.015Z,9.39
2023-04-09T03:21:08.297Z,9.25
2023-04-09T03:24:12.706Z,9.22
2023-04-09T03:27:14.920Z,9.24
2023-04-09T03:30:16.781Z,9.73
2023-04-09T03:33:20.249Z,9.92
2023-04-09T03:36:31.176Z,9.82
2023-04-09T03:39:44.350Z,9.70
2023-04-09T03:42:45.878Z,9.56
2023-04-09T03:45:50.500Z,9.54
2023-04-09T03:48:57.324Z,9.67
2023-04-09T03:52:07.197Z,9.82
2023-04-09T03:55:12.617Z,9.86
2023-04-09T03:58:14.269Z,9.85
2023-04-09T04:01:16.168Z,9.87
2023-04-09T04:04:28.329Z,9.91
2023-04-09T04:07:32.806Z,9.92
2023-04-09T04:10:40.717Z,9.86
2023-04-09T04:13:42.738Z,9.92
2023-04-09T04:16:45.133Z,9.88
2023-04-09T04:19:50.715Z,9.86
2023-04-09T04:22:52.314Z,9.81
2023-04-09T04:25:54.144Z,9.74
2023-04-09T04:29:03.054Z,9.67
2023-04-09T04:32:21.449Z,9.70
2023-04-09T04:35:23.676Z,9.74
2023-04-09T04:38:28.861Z,9.69
2023-04-09T04:41:32.172Z,9.52
2023-04-09T04:44:45.121Z,9.44
2023-04-09T04:47:56.207Z,9.41
2023-04-09T04:50:59.867Z,9.40
2023-04-09T04:54:06.704Z,9.43
2023-04-09T04:57:08.295Z,9.27
2023-04-09T05:00:15.176Z,9.14
2023-04-09T05:03:16.938Z,9.22
2023-04-09T05:06:35.355Z,9.36
2023-04-09T05:09:42.934Z,9.50
2023-04-09T05:12:44.563Z,9.63
2023-04-09T05:15:49.060Z,9.67
2023-04-09T05:18:51.203Z,9.77
2023-04-09T05:21:52.944Z,9.82
2023-04-09T05:24:56.971Z,9.99
2023-04-09T05:27:59.269Z,10.13
2023-04-09T05:31:01.604Z,10.24
2023-04-09T05:34:05.329Z,10.18
2023-04-09T05:37:14.410Z,10.27
2023-04-09T05:40:19.803Z,10.28
2023-04-09T05:43:21.996Z,10.33
2023-04-09T05:46:23.548Z,10.39
2023-04-09T05:49:25.810Z,10.49
2023-04-09T05:52:29.539Z,10.64
2023-04-09T05:55:32.402Z,10.72
2023-04-09T05:58:36.192Z,10.85
2023-04-09T06:01:37.769Z,11.03
2023-04-09T06:04:39.297Z,11.22
2023-04-09T06:07:40.881Z,11.18
2023-04-09T06:10:42.375Z,11.25
2023-04-09T06:13:43.990Z,11.48
2023-04-09T06:16:45.468Z,11.61
2023-04-09T06:19:47.497Z,11.72
2023-04-09T06:22:48.961Z,11.85
2023-04-09T06:25:50.430Z,12.04
2023-04-09T06:28:52.334Z,12.32
2023-04-09T06:31:54.064Z,12.29
2023-04-09T06:34:55.714Z,12.41
2023-04-09T06:37:57.193Z,12.45
2023-04-09T06:40:58.741Z,12.37
2023-04-09T06:44:00.622Z,12.38
2023-04-09T06:47:02.302Z,12.38
2023-04-09T06:50:04.164Z,12.50
2023-04-09T06:53:06.954Z,12.57
2023-04-09T06:56:08.546Z,12.40
2023-04-09T06:59:10.051Z,12.08
2023-04-09T07:02:11.958Z,12.04
2023-04-09T07:05:13.575Z,12.16
2023-04-09T07:08:15.271Z,12.19
2023-04-09T07:11:17.290Z,12.32
2023-04-09T07:14:18.918Z,12.36
2023-04-09T07:17:20.506Z,12.53
2023-04-09T07:20:22.018Z,12.48
2023-04-09T07:23:23.541Z,12.63
2023-04-09T07:26:25.022Z,12.66
2023-04-09T07:29:27.360Z,12.76
2023-04-09T07:32:29.339Z,12.85
2023-04-09T07:35:31.993Z,12.83
2023-04-09T07:38:33.522Z,13.00
2023-04-09T07:41:35.007Z,13.22
2023-04-09T07:44:36.728Z,13.22
2023-04-09T07:47:39.476Z,13.29
2023-04-09T07:50:40.931Z,13.33
2023-04-09T07:53:42.349Z,13.53
2023-04-09T07:56:43.880Z,13.64
2023-04-09T07:59:45.478Z,13.74
2023-04-09T08:02:47.176Z,13.82
2023-04-09T08:05:48.842Z,13.90
2023-04-09T08:08:50.862Z,13.99
2023-04-09T08:11:53.226Z,14.08
2023-04-09T08:14:54.747Z,14.06
2023-04-09T08:17:57.001Z,14.12
2023-04-09T08:20:58.552Z,14.24
2023-04-09T08:24:04.337Z,14.27
2023-04-09T08:27:05.792Z,14.36
2023-04-09T08:30:07.818Z,14.40
2023-04-09T08:33:09.648Z,14.45
2023-04-09T08:36:11.770Z,14.58
2023-04-09T08:39:13.300Z,14.62
2023-04-09T08:42:16.022Z,14.74
2023-04-09T08:45:17.561Z,14.80
2023-04-09T08:48:20.389Z,14.90
2023-04-09T08:51:24.013Z,14.91
2023-04-09T08:54:26.813Z,15.01
2023-04-09T08:57:28.396Z,15.02
2023-04-09T09:00:29.964Z,15.21
2023-04-09T09:03:31.524Z,15.37
2023-04-09T09:06:35.594Z,15.32
2023-04-09T09:09:53.946Z,15.36
2023-04-09T09:12:55.477Z,15.50
2023-04-09T09:16:15.132Z,15.64
2023-04-09T09:19:26.036Z,15.94
2023-04-09T09:22:27.582Z,16.03
2023-04-09T09:25:30.676Z,16.10
2023-04-09T09:28:36.090Z,16.27
2023-04-09T09:31:49.111Z,16.44
2023-04-09T09:35:07.514Z,16.55
2023-04-09T09:38:09.031Z,16.90
2023-04-09T09:41:20.604Z,17.09
2023-04-09T09:44:32.947Z,17.14
2023-04-09T09:47:34.716Z,17.47
2023-04-09T09:50:39.308Z,17.62
2023-04-09T09:53:45.868Z,17.59
2023-04-09T09:56:52.569Z,17.76
2023-04-09T10:00:00.660Z,17.84
2023-04-09T10:03:16.022Z,17.94
2023-04-09T10:06:18.368Z,18.14
2023-04-09T10:09:21.968Z,18.28
2023-04-09T10:12:25.044Z,18.46
2023-04-09T10:15:29.520Z,18.64
2023-04-09T10:18:33.496Z,18.91
2023-04-09T10:21:53.699Z,18.56
2023-04-09T10:24:55.817Z,18.36
2023-04-09T10:28:02.130Z,18.54
2023-04-09T10:31:05.551Z,18.75
2023-04-09T10:34:08.263Z,18.74
2023-04-09T10:37:22.834Z,18.49
2023-04-09T10:40:24.359Z,18.31
2023-04-09T10:43:25.796Z,18.62
2023-04-09T10:46:34.742Z,19.02
2023-04-09T10:49:38.498Z,19.22
2023-04-09T10:52:41.658Z,19.15
2023-04-09T10:55:50.221Z,19.47
2023-04-09T10:58:51.965Z,19.51
2023-04-09T11:01:54.666Z,19.62
2023-04-09T11:05:30.090Z,19.77
2023-04-09T11:08:33.370Z,19.73
2023-04-09T11:11:36.442Z,19.76
2023-04-09T11:14:37.872Z,20.05
2023-04-09T11:17:39.429Z,20.15
2023-04-09T11:20:41.366Z,20.12
2023-04-09T11:23:51.845Z,19.95
2023-04-09T11:26:54.771Z,19.57
2023-04-09T11:29:56.643Z,19.72
2023-04-09T11:32:58.108Z,19.87
2023-04-09T11:35:59.753Z,19.94
2023-04-09T11:39:02.400Z,20.07
2023-04-09T11:42:03.890Z,20.12
2023-04-09T11:45:05.989Z,19.89
2023-04-09T11:48:07.641Z,20.12
2023-04-09T11:51:09.282Z,20.26
2023-04-09T11:54:12.167Z,20.03
2023-04-09T11:57:13.640Z,20.12
2023-04-09T12:00:17.408Z,20.12
2023-04-09T12:03:19.293Z,20.50
2023-04-09T12:06:25.282Z,20.10
2023-04-09T12:09:26.862Z,20.23
2023-04-09T12:12:28.314Z,20.31
2023-04-09T12:15:34.659Z,20.22
2023-04-09T12:18:37.993Z,20.52
2023-04-09T12:21:51.924Z,20.92
2023-04-09T12:24:55.037Z,20.82
2023-04-09T12:27:56.757Z,20.94
2023-04-09T12:30:59.496Z,21.12
2023-04-09T12:34:01.182Z,21.35
2023-04-09T12:37:02.658Z,21.54
2023-04-09T12:40:04.495Z,21.56
2023-04-09T12:43:06.245Z,21.31
2023-04-09T12:46:08.207Z,21.47
2023-04-09T12:49:09.678Z,21.69
2023-04-09T12:52:11.158Z,21.25
2023-04-09T12:55:14.257Z,20.68
2023-04-09T12:58:15.884Z,20.81
2023-04-09T13:01:17.981Z,21.07
2023-04-09T13:04:19.570Z,21.52
2023-04-09T13:07:21.160Z,21.89
2023-04-09T13:10:22.687Z,22.16
2023-04-09T13:13:25.013Z,22.14
2023-04-09T13:16:26.863Z,22.13
2023-04-09T13:19:28.419Z,22.26
2023-04-09T13:22:29.902Z,22.16
2023-04-09T13:25:31.382Z,21.69
2023-04-09T13:28:33.216Z,21.58
2023-04-09T13:31:37.954Z,22.01
2023-04-09T13:34:39.882Z,22.09
2023-04-09T13:37:41.955Z,22.37
2023-04-09T13:40:44.226Z,22.61
2023-04-09T13:43:45.746Z,22.77
2023-04-09T13:46:47.272Z,22.79
2023-04-09T13:49:48.746Z,22.79
2023-04-09T13:52:50.405Z,22.47
2023-04-09T13:55:51.857Z,22.52
2023-04-09T13:58:53.441Z,22.64
2023-04-09T14:01:55.699Z,22.35
2023-04-09T14:04:57.240Z,22.41
2023-04-09T14:07:58.934Z,22.23
2023-04-09T14:11:00.740Z,22.23
2023-04-09T14:14:02.380Z,22.43
2023-04-09T14:17:03.839Z,22.63
2023-04-09T14:20:05.963Z,22.76
2023-04-09T14:23:07.496Z,22.86
2023-04-09T14:26:08.969Z,22.86
2023-04-09T14:29:10.860Z,22.76
2023-04-09T14:32:12.309Z,22.55
2023-04-09T14:35:13.874Z,22.42
2023-04-09T14:38:15.367Z,22.70
2023-04-09T14:41:17.006Z,22.79
2023-04-09T14:44:18.451Z,22.69
2023-04-09T14:47:20.045Z,22.90
2023-04-09T14:50:21.555Z,22.71
2023-04-09T14:53:23.420Z,23.01
2023-04-09T14:56:27.736Z,23.21
2023-04-09T14:59:29.218Z,23.14
2023-04-09T15:02:30.888Z,23.04
2023-04-09T15:05:32.527Z,23.41
2023-04-09T15:08:34.042Z,23.30
2023-04-09T15:11:35.512Z,22.91
2023-04-09T15:14:36.968Z,22.88
2023-04-09T15:17:38.486Z,23.02
2023-04-09T15:20:40.380Z,23.10
2023-04-09T15:23:41.860Z,22.97
2023-04-09T15:26:43.410Z,23.19
2023-04-09T15:29:45.063Z,23.72
2023-04-09T15:32:46.571Z,23.88
2023-04-09T15:35:48.116Z,23.98
2023-04-09T15:38:53.922Z,24.06
2023-04-09T15:41:59.020Z,23.89
2023-04-09T15:45:00.521Z,23.95
2023-04-09T15:48:02.066Z,24.40
2023-04-09T15:51:04.938Z,29.17
2023-04-09T15:54:06.374Z,32.50
2023-04-09T15:57:07.881Z,34.87
2023-04-09T16:00:10.715Z,37.53
2023-04-09T16:03:12.782Z,38.76
2023-04-09T16:06:14.430Z,38.72
2023-04-09T16:09:16.161Z,39.21
2023-04-09T16:12:17.592Z,39.00
2023-04-09T16:15:19.041Z,38.16
2023-04-09T16:18:20.652Z,38.48
2023-04-09T16:21:22.353Z,38.12
2023-04-09T16:24:23.795Z,38.24
2023-04-09T16:27:25.362Z,37.37
2023-04-09T16:30:26.940Z,37.30
2023-04-09T16:33:28.468Z,36.77
2023-04-09T16:36:31.517Z,36.82
2023-04-09T16:39:33.091Z,35.71
2023-04-09T16:42:34.640Z,36.30
2023-04-09T16:45:36.226Z,35.99
2023-04-09T16:48:41.623Z,35.48
2023-04-09T16:51:43.279Z,34.69
2023-04-09T16:54:44.811Z,35.02
2023-04-09T16:57:46.338Z,35.43
2023-04-09T17:00:48.772Z,35.43
2023-04-09T17:03:52.184Z,35.15
2023-04-09T17:06:53.751Z,34.73
2023-04-09T17:09:55.410Z,34.06
2023-04-09T17:12:56.881Z,33.84
2023-04-09T17:15:58.570Z,32.86
2023-04-09T17:19:00.117Z,32.73
2023-04-09T17:22:01.641Z,32.42
2023-04-09T17:25:04.748Z,32.10
2023-04-09T17:28:06.911Z,31.06
2023-04-09T17:31:13.279Z,29.72
2023-04-09T17:34:16.264Z,29.46
2023-04-09T17:37:17.706Z,28.50
2023-04-09T17:40:20.050Z,27.34
2023-04-09T17:43:21.492Z,24.05
2023-04-09T17:46:23.760Z,21.81
2023-04-09T17:49:25.318Z,21.81
2023-04-09T17:52:26.836Z,21.17
2023-04-09T17:55:28.358Z,20.80
2023-04-09T17:58:29.987Z,19.94
2023-04-09T18:01:31.527Z,18.70
2023-04-09T18:04:33.910Z,18.57
2023-04-09T18:07:35.882Z,18.23
2023-04-09T18:10:37.377Z,17.97
2023-04-09T18:13:38.998Z,17.91
2023-04-09T18:16:41.241Z,17.91
2023-04-09T18:19:42.826Z,17.60
2023-04-09T18:22:44.297Z,17.45
2023-04-09T18:25:45.989Z,17.55
2023-04-09T18:28:47.489Z,17.54
2023-04-09T18:31:49.070Z,17.44
2023-04-09T18:34:51.981Z,17.21
2023-04-09T18:37:53.490Z,16.91
2023-04-09T18:40:56.457Z,16.76
2023-04-09T18:43:57.966Z,16.70
2023-04-09T18:47:00.014Z,16.60
2023-04-09T18:50:02.383Z,16.37
2023-04-09T18:53:05.543Z,16.17
2023-04-09T18:56:07.236Z,16.17
2023-04-09T18:59:08.730Z,16.17
2023-04-09T19:02:10.706Z,15.99
2023-04-09T19:05:12.363Z,15.88
2023-04-09T19:08:14.110Z,15.59
2023-04-09T19:11:16.152Z,15.35
2023-04-09T19:14:17.632Z,15.20
2023-04-09T19:17:19.207Z,15.02
2023-04-09T19:20:20.968Z,15.17
2023-04-09T19:23:22.390Z,15.17
2023-04-09T19:26:23.932Z,15.11
2023-04-09T19:29:25.469Z,15.01
2023-04-09T19:32:27.087Z,14.71
2023-04-09T19:35:28.784Z,14.69
2023-04-09T19:38:30.246Z,14.65
2023-04-09T19:41:31.813Z,14.60
2023-04-09T19:44:33.306Z,14.53
2023-04-09T19:47:34.945Z,14.50
2023-04-09T19:50:37.942Z,14.48
2023-04-09T19:53:40.033Z,14.37
2023-04-09T19:56:42.437Z,14.24
2023-04-09T19:59:43.892Z,14.06
2023-04-09T20:02:45.618Z,14.06
2023-04-09T20:05:47.737Z,14.01
2023-04-09T20:08:49.543Z,13.85
2023-04-09T20:11:51.236Z,13.74
2023-04-09T20:14:52.712Z,13.76
2023-04-09T20:17:54.245Z,13.62
2023-04-09T20:20:55.913Z,13.54
2023-04-09T20:23:57.340Z,13.44
2023-04-09T20:26:59.630Z,13.41
2023-04-09T20:30:02.062Z,13.23
2023-04-09T20:33:03.630Z,13.11
2023-04-09T20:36:14.470Z,13.08
2023-04-09T20:39:16.261Z,13.04
2023-04-09T20:42:17.741Z,13.21
2023-04-09T20:45:19.262Z,13.29
2023-04-09T20:48:20.932Z,13.29
2023-04-09T20:51:22.872Z,13.16
2023-04-09T20:54:24.352Z,12.95
2023-04-09T20:57:25.929Z,12.84
2023-04-09T21:00:27.491Z,12.82
2023-04-09T21:03:29.813Z,12.85
2023-04-09T21:06:31.711Z,12.74
2023-04-09T21:09:34.080Z,12.67
2023-04-09T21:12:35.657Z,12.41
2023-04-09T21:15:37.174Z,12.39
2023-04-09T21:18:38.736Z,12.33
2023-04-09T21:21:40.364Z,12.29
2023-04-09T21:24:41.844Z,12.30
2023-04-09T21:27:43.327Z,12.25
2023-04-09T21:30:44.777Z,12.20
2023-04-09T21:33:46.396Z,12.18
2023-04-09T21:36:48.542Z,12.17
2023-04-09T21:39:50.110Z,12.10
2023-04-09T21:42:52.025Z,12.00
2023-04-09T21:45:53.697Z,11.98
2023-04-09T21:48:55.261Z,12.07
2023-04-09T21:51:59.151Z,12.16
2023-04-09T21:55:00.882Z,12.22
2023-04-09T21:58:03.471Z,12.03
2023-04-09T22:01:07.463Z,11.99
2023-04-09T22:04:13.583Z,12.08
2023-04-09T22:07:15.297Z,12.14
2023-04-09T22:10:16.870Z,12.10
2023-04-09T22:13:18.278Z,12.10
2023-04-09T22:16:19.904Z,12.04
2023-04-09T22:19:21.634Z,11.95
2023-04-09T22:22:23.121Z,11.95
2023-04-09T22:25:24.882Z,11.98
2023-04-09T22:28:26.381Z,11.95
2023-04-09T22:31:27.886Z,11.96
2023-04-09T22:34:29.357Z,11.94
2023-04-09T22:37:30.856Z,11.89
2023-04-09T22:40:32.330Z,11.77
2023-04-09T22:43:33.772Z,11.71
2023-04-09T22:46:36.055Z,11.77
2023-04-09T22:49:37.513Z,11.77
2023-04-09T22:52:38.945Z,11.77
2023-04-09T22:55:40.564Z,11.77
2023-04-09T22:58:42.133Z,11.83
2023-04-09T23:01:43.718Z,11.81
2023-04-09T23:04:45.445Z,11.66
2023-04-09T23:07:47.052Z,11.58
2023-04-09T23:10:48.534Z,11.66
2023-04-09T23:13:50.003Z,11.52
2023-04-09T23:16:51.464Z,11.45
2023-04-09T23:19:52.936Z,11.36
2023-04-09T23:22:54.429Z,11.28
2023-04-09T23:25:55.936Z,11.05
2023-04-09T23:28:57.429Z,11.00
2023-04-09T23:31:59.210Z,10.89
2023-04-09T23:35:01.693Z,10.85
2023-04-09T23:38:03.215Z,10.72
2023-04-09T23:41:04.895Z,10.61
2023-04-09T23:44:06.344Z,10.42
2023-04-09T23:47:07.918Z,10.37
2023-04-09T23:50:09.902Z,10.44
2023-04-09T23:53:11.657Z,10.39
2023-04-09T23:56:16.168Z,10.31
2023-04-09T23:59:17.660Z,10.39
